sensor_id;sensor_type;location;lat;lon;timestamp;P1;durP1;ratioP1;P2;durP2;ratioP2
74229;SDS011;62589;12.568;99.958;2023-07-20T00:00:56;11.90;;;5.88;;
74229;SDS011;62589;12.568;99.958;2023-07-20T00:03:23;14.27;;;5.38;;
74229;SDS011;62589;12.568;99.958;2023-07-20T00:05:53;11.23;;;5.15;;
74229;SDS011;62589;12.568;99.958;2023-07-20T00:08:19;12.18;;;5.00;;
74229;SDS011;62589;12.568;99.958;2023-07-20T00:10:46;12.77;;;6.07;;
74229;SDS011;62589;12.568;99.958;2023-07-20T00:13:12;12.40;;;5.35;;
74229;SDS011;62589;12.568;99.958;2023-07-20T00:15:41;11.05;;;6.47;;
74229;SDS011;62589;12.568;99.958;2023-07-20T00:18:08;14.82;;;6.97;;
74229;SDS011;62589;12.568;99.958;2023-07-20T00:20:34;13.20;;;6.70;;
74229;SDS011;62589;12.568;99.958;2023-07-20T00:23:01;17.02;;;5.88;;
74229;SDS011;62589;12.568;99.958;2023-07-20T00:25:27;10.23;;;5.70;;
74229;SDS011;62589;12.568;99.958;2023-07-20T00:27:53;12.60;;;5.60;;
74229;SDS011;62589;12.568;99.958;2023-07-20T00:30:20;12.38;;;5.57;;
74229;SDS011;62589;12.568;99.958;2023-07-20T00:32:46;13.43;;;5.63;;
74229;SDS011;62589;12.568;99.958;2023-07-20T00:35:13;12.60;;;5.57;;
74229;SDS011;62589;12.568;99.958;2023-07-20T00:37:39;10.82;;;5.45;;
74229;SDS011;62589;12.568;99.958;2023-07-20T00:40:06;15.05;;;5.20;;
74229;SDS011;62589;12.568;99.958;2023-07-20T00:42:33;10.43;;;5.28;;
74229;SDS011;62589;12.568;99.958;2023-07-20T00:44:59;15.20;;;5.65;;
74229;SDS011;62589;12.568;99.958;2023-07-20T00:47:26;9.90;;;4.22;;
74229;SDS011;62589;12.568;99.958;2023-07-20T00:49:54;9.90;;;3.75;;
74229;SDS011;62589;12.568;99.958;2023-07-20T00:52:21;14.10;;;3.85;;
74229;SDS011;62589;12.568;99.958;2023-07-20T00:54:49;10.05;;;3.70;;
74229;SDS011;62589;12.568;99.958;2023-07-20T00:57:17;11.23;;;3.47;;
74229;SDS011;62589;12.568;99.958;2023-07-20T00:59:44;10.93;;;3.60;;
74229;SDS011;62589;12.568;99.958;2023-07-20T01:02:11;12.07;;;3.40;;
74229;SDS011;62589;12.568;99.958;2023-07-20T01:04:37;11.30;;;3.33;;
74229;SDS011;62589;12.568;99.958;2023-07-20T01:09:52;11.52;;;3.92;;
74229;SDS011;62589;12.568;99.958;2023-07-20T01:12:45;14.77;;;3.90;;
74229;SDS011;62589;12.568;99.958;2023-07-20T01:15:13;10.43;;;3.42;;
74229;SDS011;62589;12.568;99.958;2023-07-20T01:17:40;11.15;;;3.70;;
74229;SDS011;62589;12.568;99.958;2023-07-20T01:20:06;6.93;;;2.97;;
74229;SDS011;62589;12.568;99.958;2023-07-20T01:25:56;10.45;;;3.50;;
74229;SDS011;62589;12.568;99.958;2023-07-20T01:28:44;10.18;;;3.20;;
74229;SDS011;62589;12.568;99.958;2023-07-20T01:31:34;11.02;;;3.50;;
74229;SDS011;62589;12.568;99.958;2023-07-20T01:34:02;12.55;;;3.88;;
74229;SDS011;62589;12.568;99.958;2023-07-20T01:36:33;14.10;;;3.55;;
74229;SDS011;62589;12.568;99.958;2023-07-20T01:39:02;11.13;;;3.80;;
74229;SDS011;62589;12.568;99.958;2023-07-20T01:41:30;11.18;;;3.05;;
74229;SDS011;62589;12.568;99.958;2023-07-20T01:43:59;11.68;;;3.75;;
74229;SDS011;62589;12.568;99.958;2023-07-20T01:46:26;12.88;;;3.65;;
74229;SDS011;62589;12.568;99.958;2023-07-20T01:48:53;10.25;;;3.63;;
74229;SDS011;62589;12.568;99.958;2023-07-20T01:51:20;10.88;;;3.58;;
74229;SDS011;62589;12.568;99.958;2023-07-20T01:53:47;7.60;;;2.75;;
74229;SDS011;62589;12.568;99.958;2023-07-20T01:56:13;10.27;;;3.33;;
74229;SDS011;62589;12.568;99.958;2023-07-20T01:58:40;8.23;;;3.05;;
74229;SDS011;62589;12.568;99.958;2023-07-20T02:01:06;10.57;;;3.80;;
74229;SDS011;62589;12.568;99.958;2023-07-20T02:03:33;11.43;;;3.60;;
74229;SDS011;62589;12.568;99.958;2023-07-20T02:05:59;12.45;;;4.13;;
74229;SDS011;62589;12.568;99.958;2023-07-20T02:08:26;13.10;;;3.55;;
74229;SDS011;62589;12.568;99.958;2023-07-20T02:10:52;10.75;;;2.88;;
74229;SDS011;62589;12.568;99.958;2023-07-20T02:13:18;12.18;;;3.38;;
74229;SDS011;62589;12.568;99.958;2023-07-20T02:15:45;11.27;;;2.78;;
74229;SDS011;62589;12.568;99.958;2023-07-20T02:18:12;8.73;;;2.60;;
74229;SDS011;62589;12.568;99.958;2023-07-20T02:20:40;8.18;;;2.55;;
74229;SDS011;62589;12.568;99.958;2023-07-20T02:23:07;7.15;;;2.70;;
74229;SDS011;62589;12.568;99.958;2023-07-20T02:25:34;11.05;;;3.47;;
74229;SDS011;62589;12.568;99.958;2023-07-20T02:28:00;13.23;;;3.95;;
74229;SDS011;62589;12.568;99.958;2023-07-20T02:30:27;9.00;;;2.90;;
74229;SDS011;62589;12.568;99.958;2023-07-20T02:32:56;9.98;;;3.47;;
74229;SDS011;62589;12.568;99.958;2023-07-20T02:35:23;9.60;;;3.63;;
74229;SDS011;62589;12.568;99.958;2023-07-20T02:37:50;13.85;;;3.65;;
74229;SDS011;62589;12.568;99.958;2023-07-20T02:40:16;13.20;;;3.83;;
74229;SDS011;62589;12.568;99.958;2023-07-20T02:42:43;10.95;;;3.70;;
74229;SDS011;62589;12.568;99.958;2023-07-20T02:45:09;10.57;;;3.40;;
74229;SDS011;62589;12.568;99.958;2023-07-20T02:47:35;10.80;;;3.70;;
74229;SDS011;62589;12.568;99.958;2023-07-20T02:50:02;10.57;;;3.70;;
74229;SDS011;62589;12.568;99.958;2023-07-20T02:52:31;12.88;;;3.70;;
74229;SDS011;62589;12.568;99.958;2023-07-20T02:54:57;9.98;;;3.25;;
74229;SDS011;62589;12.568;99.958;2023-07-20T02:57:24;8.07;;;3.42;;
74229;SDS011;62589;12.568;99.958;2023-07-20T02:59:50;8.70;;;3.60;;
74229;SDS011;62589;12.568;99.958;2023-07-20T03:02:17;11.80;;;2.67;;
74229;SDS011;62589;12.568;99.958;2023-07-20T03:04:43;11.07;;;3.53;;
74229;SDS011;62589;12.568;99.958;2023-07-20T03:07:09;8.50;;;3.00;;
74229;SDS011;62589;12.568;99.958;2023-07-20T03:09:36;12.00;;;3.20;;
74229;SDS011;62589;12.568;99.958;2023-07-20T03:12:02;9.23;;;3.42;;
74229;SDS011;62589;12.568;99.958;2023-07-20T03:14:30;11.75;;;3.42;;
74229;SDS011;62589;12.568;99.958;2023-07-20T03:16:56;8.85;;;3.15;;
74229;SDS011;62589;12.568;99.958;2023-07-20T03:19:23;9.25;;;3.40;;
74229;SDS011;62589;12.568;99.958;2023-07-20T03:21:49;9.35;;;3.22;;
74229;SDS011;62589;12.568;99.958;2023-07-20T03:24:15;13.00;;;3.10;;
74229;SDS011;62589;12.568;99.958;2023-07-20T03:26:42;8.52;;;3.20;;
74229;SDS011;62589;12.568;99.958;2023-07-20T03:29:08;10.77;;;3.03;;
74229;SDS011;62589;12.568;99.958;2023-07-20T03:31:35;11.93;;;3.53;;
74229;SDS011;62589;12.568;99.958;2023-07-20T03:34:01;12.85;;;3.83;;
74229;SDS011;62589;12.568;99.958;2023-07-20T03:36:28;12.48;;;3.80;;
74229;SDS011;62589;12.568;99.958;2023-07-20T03:38:54;13.30;;;3.72;;
74229;SDS011;62589;12.568;99.958;2023-07-20T03:41:21;10.20;;;3.50;;
74229;SDS011;62589;12.568;99.958;2023-07-20T03:43:47;10.95;;;3.35;;
74229;SDS011;62589;12.568;99.958;2023-07-20T03:46:14;8.25;;;3.30;;
74229;SDS011;62589;12.568;99.958;2023-07-20T03:48:40;15.18;;;3.85;;
74229;SDS011;62589;12.568;99.958;2023-07-20T03:51:07;10.15;;;3.15;;
74229;SDS011;62589;12.568;99.958;2023-07-20T03:53:33;9.30;;;3.10;;
74229;SDS011;62589;12.568;99.958;2023-07-20T03:56:00;7.40;;;2.47;;
74229;SDS011;62589;12.568;99.958;2023-07-20T03:58:26;8.40;;;2.88;;
74229;SDS011;62589;12.568;99.958;2023-07-20T04:00:53;8.15;;;3.20;;
74229;SDS011;62589;12.568;99.958;2023-07-20T04:03:19;11.20;;;3.00;;
74229;SDS011;62589;12.568;99.958;2023-07-20T04:05:48;10.50;;;2.95;;
74229;SDS011;62589;12.568;99.958;2023-07-20T04:08:14;9.15;;;3.42;;
74229;SDS011;62589;12.568;99.958;2023-07-20T04:10:44;11.40;;;3.13;;
74229;SDS011;62589;12.568;99.958;2023-07-20T04:13:11;14.98;;;3.78;;
74229;SDS011;62589;12.568;99.958;2023-07-20T04:15:37;11.00;;;3.25;;
74229;SDS011;62589;12.568;99.958;2023-07-20T04:18:04;8.18;;;3.53;;
74229;SDS011;62589;12.568;99.958;2023-07-20T04:20:30;6.97;;;2.63;;
74229;SDS011;62589;12.568;99.958;2023-07-20T04:22:57;12.38;;;3.30;;
74229;SDS011;62589;12.568;99.958;2023-07-20T04:25:24;12.57;;;2.65;;
74229;SDS011;62589;12.568;99.958;2023-07-20T04:27:51;8.57;;;2.88;;
74229;SDS011;62589;12.568;99.958;2023-07-20T04:30:18;8.40;;;2.80;;
74229;SDS011;62589;12.568;99.958;2023-07-20T04:32:46;9.00;;;3.10;;
74229;SDS011;62589;12.568;99.958;2023-07-20T04:35:16;12.75;;;3.70;;
74229;SDS011;62589;12.568;99.958;2023-07-20T04:38:03;10.00;;;3.15;;
74229;SDS011;62589;12.568;99.958;2023-07-20T04:40:29;7.95;;;2.80;;
74229;SDS011;62589;12.568;99.958;2023-07-20T04:42:56;11.82;;;3.15;;
74229;SDS011;62589;12.568;99.958;2023-07-20T04:45:22;8.02;;;2.95;;
74229;SDS011;62589;12.568;99.958;2023-07-20T04:47:49;9.40;;;2.92;;
74229;SDS011;62589;12.568;99.958;2023-07-20T04:50:16;8.40;;;3.00;;
74229;SDS011;62589;12.568;99.958;2023-07-20T04:52:42;7.38;;;2.75;;
74229;SDS011;62589;12.568;99.958;2023-07-20T04:55:11;8.02;;;3.08;;
74229;SDS011;62589;12.568;99.958;2023-07-20T04:57:38;9.15;;;2.97;;
74229;SDS011;62589;12.568;99.958;2023-07-20T05:00:04;11.38;;;2.90;;
74229;SDS011;62589;12.568;99.958;2023-07-20T05:02:31;9.05;;;2.80;;
74229;SDS011;62589;12.568;99.958;2023-07-20T05:04:58;8.70;;;3.10;;
74229;SDS011;62589;12.568;99.958;2023-07-20T05:07:24;8.15;;;2.55;;
74229;SDS011;62589;12.568;99.958;2023-07-20T05:09:51;8.77;;;2.80;;
74229;SDS011;62589;12.568;99.958;2023-07-20T05:12:17;4.85;;;2.50;;
74229;SDS011;62589;12.568;99.958;2023-07-20T05:14:44;7.35;;;2.35;;
74229;SDS011;62589;12.568;99.958;2023-07-20T05:17:10;7.10;;;2.83;;
74229;SDS011;62589;12.568;99.958;2023-07-20T05:19:37;10.57;;;3.58;;
74229;SDS011;62589;12.568;99.958;2023-07-20T05:22:03;9.88;;;3.45;;
74229;SDS011;62589;12.568;99.958;2023-07-20T05:24:31;8.15;;;2.83;;
74229;SDS011;62589;12.568;99.958;2023-07-20T05:26:58;9.05;;;3.63;;
74229;SDS011;62589;12.568;99.958;2023-07-20T05:29:24;12.95;;;3.45;;
74229;SDS011;62589;12.568;99.958;2023-07-20T05:31:51;8.75;;;2.92;;
74229;SDS011;62589;12.568;99.958;2023-07-20T05:34:17;10.57;;;3.70;;
74229;SDS011;62589;12.568;99.958;2023-07-20T05:36:44;11.45;;;3.17;;
74229;SDS011;62589;12.568;99.958;2023-07-20T05:39:10;8.90;;;3.25;;
74229;SDS011;62589;12.568;99.958;2023-07-20T05:41:37;10.82;;;3.40;;
74229;SDS011;62589;12.568;99.958;2023-07-20T05:44:03;11.52;;;3.15;;
74229;SDS011;62589;12.568;99.958;2023-07-20T05:46:30;15.43;;;3.42;;
74229;SDS011;62589;12.568;99.958;2023-07-20T05:48:56;9.75;;;3.15;;
74229;SDS011;62589;12.568;99.958;2023-07-20T05:51:23;11.05;;;3.40;;
74229;SDS011;62589;12.568;99.958;2023-07-20T05:53:49;8.57;;;3.03;;
74229;SDS011;62589;12.568;99.958;2023-07-20T05:56:15;15.77;;;4.80;;
74229;SDS011;62589;12.568;99.958;2023-07-20T05:58:42;12.63;;;3.92;;
74229;SDS011;62589;12.568;99.958;2023-07-20T06:01:09;15.73;;;4.03;;
74229;SDS011;62589;12.568;99.958;2023-07-20T06:03:35;11.00;;;3.47;;
74229;SDS011;62589;12.568;99.958;2023-07-20T06:06:03;8.45;;;3.45;;
74229;SDS011;62589;12.568;99.958;2023-07-20T06:08:30;11.48;;;3.78;;
74229;SDS011;62589;12.568;99.958;2023-07-20T06:10:57;8.88;;;3.33;;
74229;SDS011;62589;12.568;99.958;2023-07-20T06:13:24;9.20;;;3.63;;
74229;SDS011;62589;12.568;99.958;2023-07-20T06:15:50;7.30;;;3.15;;
74229;SDS011;62589;12.568;99.958;2023-07-20T06:18:17;10.95;;;3.65;;
74229;SDS011;62589;12.568;99.958;2023-07-20T06:20:48;8.50;;;3.28;;
74229;SDS011;62589;12.568;99.958;2023-07-20T06:23:16;9.57;;;2.85;;
74229;SDS011;62589;12.568;99.958;2023-07-20T06:25:43;6.25;;;2.78;;
74229;SDS011;62589;12.568;99.958;2023-07-20T06:28:10;9.55;;;3.20;;
74229;SDS011;62589;12.568;99.958;2023-07-20T06:30:37;7.47;;;3.28;;
74229;SDS011;62589;12.568;99.958;2023-07-20T06:33:03;8.35;;;3.35;;
74229;SDS011;62589;12.568;99.958;2023-07-20T06:35:30;10.55;;;3.33;;
74229;SDS011;62589;12.568;99.958;2023-07-20T06:37:56;7.63;;;3.38;;
74229;SDS011;62589;12.568;99.958;2023-07-20T06:40:25;7.20;;;3.33;;
74229;SDS011;62589;12.568;99.958;2023-07-20T06:42:52;8.70;;;3.75;;
74229;SDS011;62589;12.568;99.958;2023-07-20T06:45:19;11.52;;;3.30;;
74229;SDS011;62589;12.568;99.958;2023-07-20T06:47:45;10.57;;;3.20;;
74229;SDS011;62589;12.568;99.958;2023-07-20T06:50:12;9.13;;;2.92;;
74229;SDS011;62589;12.568;99.958;2023-07-20T06:52:38;9.27;;;2.90;;
74229;SDS011;62589;12.568;99.958;2023-07-20T06:55:05;6.25;;;2.85;;
74229;SDS011;62589;12.568;99.958;2023-07-20T06:57:32;7.38;;;2.53;;
74229;SDS011;62589;12.568;99.958;2023-07-20T06:59:59;6.85;;;2.25;;
74229;SDS011;62589;12.568;99.958;2023-07-20T07:02:25;8.73;;;2.40;;
74229;SDS011;62589;12.568;99.958;2023-07-20T07:04:52;8.63;;;2.85;;
74229;SDS011;62589;12.568;99.958;2023-07-20T07:07:19;8.60;;;2.40;;
74229;SDS011;62589;12.568;99.958;2023-07-20T07:09:45;5.75;;;2.45;;
74229;SDS011;62589;12.568;99.958;2023-07-20T07:12:12;5.13;;;2.60;;
74229;SDS011;62589;12.568;99.958;2023-07-20T07:14:38;8.02;;;2.90;;
74229;SDS011;62589;12.568;99.958;2023-07-20T07:17:04;6.68;;;3.05;;
74229;SDS011;62589;12.568;99.958;2023-07-20T07:19:31;7.15;;;2.70;;
74229;SDS011;62589;12.568;99.958;2023-07-20T07:21:58;15.20;;;3.95;;
74229;SDS011;62589;12.568;99.958;2023-07-20T07:24:24;11.45;;;3.15;;
74229;SDS011;62589;12.568;99.958;2023-07-20T07:26:51;16.35;;;4.53;;
74229;SDS011;62589;12.568;99.958;2023-07-20T07:29:17;14.23;;;3.95;;
74229;SDS011;62589;12.568;99.958;2023-07-20T07:31:44;14.90;;;3.20;;
74229;SDS011;62589;12.568;99.958;2023-07-20T07:34:17;11.20;;;3.00;;
74229;SDS011;62589;12.568;99.958;2023-07-20T07:37:04;8.77;;;2.65;;
74229;SDS011;62589;12.568;99.958;2023-07-20T07:39:40;7.65;;;2.45;;
74229;SDS011;62589;12.568;99.958;2023-07-20T07:42:07;4.68;;;2.05;;
74229;SDS011;62589;12.568;99.958;2023-07-20T07:44:42;8.30;;;1.65;;
74229;SDS011;62589;12.568;99.958;2023-07-20T07:47:31;5.63;;;1.40;;
74229;SDS011;62589;12.568;99.958;2023-07-20T07:49:57;5.40;;;1.55;;
74229;SDS011;62589;12.568;99.958;2023-07-20T07:52:23;4.13;;;1.27;;
74229;SDS011;62589;12.568;99.958;2023-07-20T07:54:56;3.50;;;1.52;;
74229;SDS011;62589;12.568;99.958;2023-07-20T07:57:24;4.25;;;1.20;;
74229;SDS011;62589;12.568;99.958;2023-07-20T08:00:00;4.95;;;1.35;;
74229;SDS011;62589;12.568;99.958;2023-07-20T08:02:45;6.78;;;2.03;;
74229;SDS011;62589;12.568;99.958;2023-07-20T08:05:13;5.53;;;1.83;;
74229;SDS011;62589;12.568;99.958;2023-07-20T08:07:40;8.85;;;2.03;;
74229;SDS011;62589;12.568;99.958;2023-07-20T08:10:07;6.32;;;2.40;;
74229;SDS011;62589;12.568;99.958;2023-07-20T08:12:33;6.55;;;2.00;;
74229;SDS011;62589;12.568;99.958;2023-07-20T08:15:00;3.95;;;1.08;;
74229;SDS011;62589;12.568;99.958;2023-07-20T08:17:26;2.85;;;0.90;;
74229;SDS011;62589;12.568;99.958;2023-07-20T08:19:53;1.92;;;1.00;;
74229;SDS011;62589;12.568;99.958;2023-07-20T08:22:19;3.53;;;1.38;;
74229;SDS011;62589;12.568;99.958;2023-07-20T08:24:46;2.92;;;1.52;;
74229;SDS011;62589;12.568;99.958;2023-07-20T08:27:12;3.22;;;1.60;;
74229;SDS011;62589;12.568;99.958;2023-07-20T08:29:39;4.40;;;1.63;;
74229;SDS011;62589;12.568;99.958;2023-07-20T08:32:06;4.60;;;2.00;;
74229;SDS011;62589;12.568;99.958;2023-07-20T08:34:32;6.05;;;2.35;;
74229;SDS011;62589;12.568;99.958;2023-07-20T08:36:59;7.82;;;2.35;;
74229;SDS011;62589;12.568;99.958;2023-07-20T08:39:26;6.60;;;2.63;;
74229;SDS011;62589;12.568;99.958;2023-07-20T08:41:52;8.50;;;3.30;;
74229;SDS011;62589;12.568;99.958;2023-07-20T08:44:22;5.22;;;2.70;;
74229;SDS011;62589;12.568;99.958;2023-07-20T08:46:50;8.23;;;3.17;;
74229;SDS011;62589;12.568;99.958;2023-07-20T08:49:18;6.53;;;2.58;;
74229;SDS011;62589;12.568;99.958;2023-07-20T08:51:45;6.68;;;2.53;;
74229;SDS011;62589;12.568;99.958;2023-07-20T08:54:12;3.85;;;2.03;;
74229;SDS011;62589;12.568;99.958;2023-07-20T08:56:40;7.13;;;2.72;;
74229;SDS011;62589;12.568;99.958;2023-07-20T08:59:09;4.45;;;1.80;;
74229;SDS011;62589;12.568;99.958;2023-07-20T09:01:35;4.18;;;2.13;;
74229;SDS011;62589;12.568;99.958;2023-07-20T09:04:04;8.93;;;2.70;;
74229;SDS011;62589;12.568;99.958;2023-07-20T09:06:31;6.50;;;2.92;;
74229;SDS011;62589;12.568;99.958;2023-07-20T09:09:00;4.05;;;2.55;;
74229;SDS011;62589;12.568;99.958;2023-07-20T09:11:26;3.63;;;2.28;;
74229;SDS011;62589;12.568;99.958;2023-07-20T09:14:03;5.88;;;2.22;;
74229;SDS011;62589;12.568;99.958;2023-07-20T09:16:46;5.00;;;2.47;;
74229;SDS011;62589;12.568;99.958;2023-07-20T09:19:16;3.97;;;2.20;;
74229;SDS011;62589;12.568;99.958;2023-07-20T09:21:46;3.92;;;2.13;;
74229;SDS011;62589;12.568;99.958;2023-07-20T09:24:17;5.93;;;2.42;;
74229;SDS011;62589;12.568;99.958;2023-07-20T09:26:44;4.30;;;1.98;;
74229;SDS011;62589;12.568;99.958;2023-07-20T09:29:19;3.97;;;1.83;;
74229;SDS011;62589;12.568;99.958;2023-07-20T09:34:33;4.55;;;1.50;;
74229;SDS011;62589;12.568;99.958;2023-07-20T09:36:59;2.92;;;1.00;;
74229;SDS011;62589;12.568;99.958;2023-07-20T09:39:26;3.10;;;1.40;;
74229;SDS011;62589;12.568;99.958;2023-07-20T09:41:53;5.15;;;1.50;;
74229;SDS011;62589;12.568;99.958;2023-07-20T09:44:19;3.25;;;1.02;;
74229;SDS011;62589;12.568;99.958;2023-07-20T09:46:46;2.80;;;0.90;;
74229;SDS011;62589;12.568;99.958;2023-07-20T09:49:14;3.50;;;1.10;;
74229;SDS011;62589;12.568;99.958;2023-07-20T09:51:42;1.58;;;0.80;;
74229;SDS011;62589;12.568;99.958;2023-07-20T09:54:10;1.25;;;0.73;;
74229;SDS011;62589;12.568;99.958;2023-07-20T09:56:39;2.28;;;0.80;;
74229;SDS011;62589;12.568;99.958;2023-07-20T09:59:06;1.92;;;0.65;;
74229;SDS011;62589;12.568;99.958;2023-07-20T10:01:34;3.92;;;1.10;;
74229;SDS011;62589;12.568;99.958;2023-07-20T10:04:03;3.65;;;0.98;;
74229;SDS011;62589;12.568;99.958;2023-07-20T10:06:35;1.67;;;0.63;;
74229;SDS011;62589;12.568;99.958;2023-07-20T10:09:05;1.95;;;1.05;;
74229;SDS011;62589;12.568;99.958;2023-07-20T10:11:34;3.95;;;1.42;;
74229;SDS011;62589;12.568;99.958;2023-07-20T10:14:05;6.05;;;2.03;;
74229;SDS011;62589;12.568;99.958;2023-07-20T10:16:36;10.45;;;3.83;;
74229;SDS011;62589;12.568;99.958;2023-07-20T10:19:07;6.07;;;3.70;;
74229;SDS011;62589;12.568;99.958;2023-07-20T10:21:44;3.85;;;2.00;;
74229;SDS011;62589;12.568;99.958;2023-07-20T10:24:16;15.50;;;8.15;;
74229;SDS011;62589;12.568;99.958;2023-07-20T10:26:44;6.25;;;4.13;;
74229;SDS011;62589;12.568;99.958;2023-07-20T10:29:10;5.65;;;2.58;;
74229;SDS011;62589;12.568;99.958;2023-07-20T10:31:39;3.45;;;1.45;;
74229;SDS011;62589;12.568;99.958;2023-07-20T10:34:06;3.05;;;1.60;;
74229;SDS011;62589;12.568;99.958;2023-07-20T10:36:33;2.22;;;1.10;;
74229;SDS011;62589;12.568;99.958;2023-07-20T10:44:36;2.28;;;1.17;;
74229;SDS011;62589;12.568;99.958;2023-07-20T10:47:08;3.42;;;1.55;;
74229;SDS011;62589;12.568;99.958;2023-07-20T10:49:39;3.28;;;1.30;;
74229;SDS011;62589;12.568;99.958;2023-07-20T10:52:26;3.08;;;1.50;;
74229;SDS011;62589;12.568;99.958;2023-07-20T10:55:10;4.50;;;1.08;;
74229;SDS011;62589;12.568;99.958;2023-07-20T10:57:43;3.53;;;1.33;;
74229;SDS011;62589;12.568;99.958;2023-07-20T11:00:29;2.88;;;1.10;;
74229;SDS011;62589;12.568;99.958;2023-07-20T11:02:56;4.28;;;1.42;;
74229;SDS011;62589;12.568;99.958;2023-07-20T11:05:32;1.42;;;0.80;;
74229;SDS011;62589;12.568;99.958;2023-07-20T11:08:09;2.10;;;1.00;;
74229;SDS011;62589;12.568;99.958;2023-07-20T11:10:37;1.77;;;1.08;;
74229;SDS011;62589;12.568;99.958;2023-07-20T11:16:01;5.10;;;1.20;;
74229;SDS011;62589;12.568;99.958;2023-07-20T11:18:30;1.83;;;0.85;;
74229;SDS011;62589;12.568;99.958;2023-07-20T11:21:06;2.58;;;1.00;;
74229;SDS011;62589;12.568;99.958;2023-07-20T11:23:35;2.92;;;0.90;;
74229;SDS011;62589;12.568;99.958;2023-07-20T11:26:05;3.53;;;0.80;;
74229;SDS011;62589;12.568;99.958;2023-07-20T11:28:32;3.58;;;0.93;;
74229;SDS011;62589;12.568;99.958;2023-07-20T11:31:00;3.22;;;0.77;;
74229;SDS011;62589;12.568;99.958;2023-07-20T11:33:26;3.25;;;0.60;;
74229;SDS011;62589;12.568;99.958;2023-07-20T11:35:53;3.22;;;0.68;;
74229;SDS011;62589;12.568;99.958;2023-07-20T11:38:19;2.22;;;0.85;;
74229;SDS011;62589;12.568;99.958;2023-07-20T11:40:46;2.17;;;0.63;;
74229;SDS011;62589;12.568;99.958;2023-07-20T11:43:13;1.85;;;0.65;;
74229;SDS011;62589;12.568;99.958;2023-07-20T11:45:40;2.40;;;0.85;;
74229;SDS011;62589;12.568;99.958;2023-07-20T11:48:06;2.40;;;0.85;;
74229;SDS011;62589;12.568;99.958;2023-07-20T11:50:38;1.52;;;0.50;;
74229;SDS011;62589;12.568;99.958;2023-07-20T11:53:05;1.27;;;0.63;;
74229;SDS011;62589;12.568;99.958;2023-07-20T11:55:32;2.08;;;0.47;;
74229;SDS011;62589;12.568;99.958;2023-07-20T11:58:05;3.70;;;0.70;;
74229;SDS011;62589;12.568;99.958;2023-07-20T12:00:32;1.70;;;0.52;;
74229;SDS011;62589;12.568;99.958;2023-07-20T12:03:00;2.65;;;0.60;;
74229;SDS011;62589;12.568;99.958;2023-07-20T12:05:30;0.50;;;0.32;;
74229;SDS011;62589;12.568;99.958;2023-07-20T12:07:56;1.40;;;0.47;;
74229;SDS011;62589;12.568;99.958;2023-07-20T12:10:26;1.45;;;0.50;;
74229;SDS011;62589;12.568;99.958;2023-07-20T12:12:54;1.65;;;0.50;;
74229;SDS011;62589;12.568;99.958;2023-07-20T12:15:26;3.08;;;0.73;;
74229;SDS011;62589;12.568;99.958;2023-07-20T12:17:56;3.00;;;0.73;;
74229;SDS011;62589;12.568;99.958;2023-07-20T12:20:28;2.97;;;1.05;;
74229;SDS011;62589;12.568;99.958;2023-07-20T12:23:10;2.30;;;0.50;;
74229;SDS011;62589;12.568;99.958;2023-07-20T12:25:44;1.70;;;0.63;;
74229;SDS011;62589;12.568;99.958;2023-07-20T12:28:13;2.55;;;0.70;;
74229;SDS011;62589;12.568;99.958;2023-07-20T12:30:41;3.85;;;0.60;;
74229;SDS011;62589;12.568;99.958;2023-07-20T12:33:13;3.50;;;0.80;;
74229;SDS011;62589;12.568;99.958;2023-07-20T12:35:42;2.60;;;0.60;;
74229;SDS011;62589;12.568;99.958;2023-07-20T12:38:09;2.80;;;0.77;;
74229;SDS011;62589;12.568;99.958;2023-07-20T12:40:35;1.90;;;0.60;;
74229;SDS011;62589;12.568;99.958;2023-07-20T12:43:02;1.35;;;0.70;;
74229;SDS011;62589;12.568;99.958;2023-07-20T12:45:29;2.38;;;0.80;;
74229;SDS011;62589;12.568;99.958;2023-07-20T12:47:56;2.95;;;0.80;;
74229;SDS011;62589;12.568;99.958;2023-07-20T12:50:22;3.90;;;0.82;;
74229;SDS011;62589;12.568;99.958;2023-07-20T12:52:49;2.63;;;0.60;;
74229;SDS011;62589;12.568;99.958;2023-07-20T12:55:15;3.08;;;0.70;;
74229;SDS011;62589;12.568;99.958;2023-07-20T12:57:42;4.28;;;0.85;;
74229;SDS011;62589;12.568;99.958;2023-07-20T13:00:09;2.83;;;0.93;;
74229;SDS011;62589;12.568;99.958;2023-07-20T13:02:37;4.65;;;0.95;;
74229;SDS011;62589;12.568;99.958;2023-07-20T13:05:04;3.83;;;0.80;;
74229;SDS011;62589;12.568;99.958;2023-07-20T13:07:32;3.60;;;0.93;;
74229;SDS011;62589;12.568;99.958;2023-07-20T13:10:00;1.92;;;0.63;;
74229;SDS011;62589;12.568;99.958;2023-07-20T13:12:28;2.58;;;0.60;;
74229;SDS011;62589;12.568;99.958;2023-07-20T13:14:56;5.55;;;0.80;;
74229;SDS011;62589;12.568;99.958;2023-07-20T13:17:29;1.90;;;0.90;;
74229;SDS011;62589;12.568;99.958;2023-07-20T13:19:55;2.00;;;1.00;;
74229;SDS011;62589;12.568;99.958;2023-07-20T13:22:25;3.50;;;0.88;;
74229;SDS011;62589;12.568;99.958;2023-07-20T13:24:52;3.13;;;0.70;;
74229;SDS011;62589;12.568;99.958;2023-07-20T13:27:19;1.88;;;0.75;;
74229;SDS011;62589;12.568;99.958;2023-07-20T13:29:45;2.80;;;0.90;;
74229;SDS011;62589;12.568;99.958;2023-07-20T13:32:15;5.22;;;0.70;;
74229;SDS011;62589;12.568;99.958;2023-07-20T13:34:46;4.80;;;0.95;;
74229;SDS011;62589;12.568;99.958;2023-07-20T13:37:13;1.83;;;0.80;;
74229;SDS011;62589;12.568;99.958;2023-07-20T13:39:41;3.65;;;0.80;;
74229;SDS011;62589;12.568;99.958;2023-07-20T13:42:09;1.48;;;0.60;;
74229;SDS011;62589;12.568;99.958;2023-07-20T13:44:37;2.75;;;0.60;;
74229;SDS011;62589;12.568;99.958;2023-07-20T13:47:05;5.63;;;1.02;;
74229;SDS011;62589;12.568;99.958;2023-07-20T13:49:32;1.98;;;0.50;;
74229;SDS011;62589;12.568;99.958;2023-07-20T13:51:59;2.33;;;0.90;;
74229;SDS011;62589;12.568;99.958;2023-07-20T13:54:26;1.73;;;0.52;;
74229;SDS011;62589;12.568;99.958;2023-07-20T13:56:52;3.75;;;0.70;;
74229;SDS011;62589;12.568;99.958;2023-07-20T13:59:20;2.55;;;0.95;;
74229;SDS011;62589;12.568;99.958;2023-07-20T14:01:47;4.05;;;0.75;;
74229;SDS011;62589;12.568;99.958;2023-07-20T14:04:14;2.33;;;0.80;;
74229;SDS011;62589;12.568;99.958;2023-07-20T14:06:41;2.90;;;0.80;;
74229;SDS011;62589;12.568;99.958;2023-07-20T14:09:08;1.05;;;0.55;;
74229;SDS011;62589;12.568;99.958;2023-07-20T14:11:34;1.88;;;0.63;;
74229;SDS011;62589;12.568;99.958;2023-07-20T14:14:01;1.70;;;0.50;;
74229;SDS011;62589;12.568;99.958;2023-07-20T14:16:28;1.90;;;0.75;;
74229;SDS011;62589;12.568;99.958;2023-07-20T14:18:57;3.28;;;0.75;;
74229;SDS011;62589;12.568;99.958;2023-07-20T14:21:24;3.42;;;0.90;;
74229;SDS011;62589;12.568;99.958;2023-07-20T14:23:51;3.60;;;0.60;;
74229;SDS011;62589;12.568;99.958;2023-07-20T14:26:18;3.90;;;0.80;;
74229;SDS011;62589;12.568;99.958;2023-07-20T14:28:46;1.75;;;0.80;;
74229;SDS011;62589;12.568;99.958;2023-07-20T14:31:15;1.48;;;0.60;;
74229;SDS011;62589;12.568;99.958;2023-07-20T14:33:42;1.95;;;0.68;;
74229;SDS011;62589;12.568;99.958;2023-07-20T14:36:08;3.33;;;0.60;;
74229;SDS011;62589;12.568;99.958;2023-07-20T14:38:35;3.03;;;0.90;;
74229;SDS011;62589;12.568;99.958;2023-07-20T14:41:01;3.45;;;0.60;;
74229;SDS011;62589;12.568;99.958;2023-07-20T14:43:28;3.28;;;1.00;;
74229;SDS011;62589;12.568;99.958;2023-07-20T14:46:01;3.90;;;0.82;;
74229;SDS011;62589;12.568;99.958;2023-07-20T14:48:27;4.13;;;0.70;;
74229;SDS011;62589;12.568;99.958;2023-07-20T14:50:54;2.95;;;0.60;;
74229;SDS011;62589;12.568;99.958;2023-07-20T14:53:20;3.40;;;0.68;;